1041 UTC 24 July 2016 found at http://aviationweather.gov/adds/metars/
 
METAR text: KMNH 241038Z AUTO 20008KT 10SM CLR 13/09 A3029 RMK AO2
Conditions at: KMNH (MONUMENT/ELBERT , CO, US) observed 1038 UTC 24 July 2016
Temperature: 13.0°C (55°F)
Dewpoint: 9.0°C (48°F) [RH = 77%]
Pressure (altimeter): 30.29 inches Hg (1025.8 mb)
Winds: from the SSW (200 degrees) at 9 MPH (8 knots; 4.2 m/s)
Visibility: 10 or more miles (16+ km)
Ceiling: at least 12,000 feet AGL
Clouds: sky clear below 12,000 feet AGL
Weather: automated observation with no human augmentation;
there may or may not be significant weather present at this time

METAR text: KMNH 241018Z AUTO 19009KT 10SM CLR 13/10 A3029 RMK AO2 LTG DSNT E
Conditions at: KMNH (MONUMENT/ELBERT , CO, US) observed 1018 UTC 24 July 2016
Temperature: 13.0°C (55°F)
Dewpoint: 10.0°C (50°F) [RH = 82%]
Pressure (altimeter): 30.29 inches Hg (1025.8 mb)
Winds: from the S (190 degrees) at 10 MPH (9 knots; 4.7 m/s)
Visibility: 10 or more miles (16+ km)
Ceiling: at least 12,000 feet AGL
Clouds: sky clear below 12,000 feet AGL
Weather: automated observation with no human augmentation;
there may or may not be significant weather present at this time

METAR text: KMNH 240958Z AUTO 18007KT 10SM CLR 14/10 A3030 RMK AO2 LTG DSNT W
Conditions at: KMNH (MONUMENT/ELBERT , CO, US) observed 0958 UTC 24 July 2016
Temperature: 14.0°C (57°F)
Dewpoint: 10.0°C (50°F) [RH = 77%]
Pressure (altimeter): 30.30 inches Hg (1026.2 mb)
Winds: from the S (180 degrees) at 8 MPH (7 knots; 3.6 m/s)
Visibility: 10 or more miles (16+ km)
Ceiling: at least 12,000 feet AGL
Clouds: sky clear below 12,000 feet AGL
Weather: automated observation with no human augmentation;
there may or may not be significant weather present at this time

METAR text: KMNH 240938Z AUTO 20010KT 10SM CLR 15/10 A3030 RMK AO2
Conditions at: KMNH (MONUMENT/ELBERT , CO, US) observed 0938 UTC 24 July 2016
Temperature: 15.0°C (59°F)
Dewpoint: 10.0°C (50°F) [RH = 72%]
Pressure (altimeter): 30.30 inches Hg (1026.2 mb)
Winds: from the SSW (200 degrees) at 12 MPH (10 knots; 5.2 m/s)
Visibility: 10 or more miles (16+ km)
Ceiling: at least 12,000 feet AGL
Clouds: sky clear below 12,000 feet AGL
Weather: automated observation with no human augmentation;
there may or may not be significant weather present at this time

METAR text: KMNH 240918Z AUTO 20011KT 10SM CLR 15/10 A3030 RMK AO2 LTG DSNT E
Conditions at: KMNH (MONUMENT/ELBERT , CO, US) observed 0918 UTC 24 July 2016
Temperature: 15.0°C (59°F)
Dewpoint: 10.0°C (50°F) [RH = 72%]
Pressure (altimeter): 30.30 inches Hg (1026.2 mb)
Winds: from the SSW (200 degrees) at 13 MPH (11 knots; 5.7 m/s)
Visibility: 10 or more miles (16+ km)
Ceiling: at least 12,000 feet AGL
Clouds: sky clear below 12,000 feet AGL
Weather: automated observation with no human augmentation;
there may or may not be significant weather present at this time

METAR text: KMNH 240857Z AUTO 20010KT 10SM CLR 15/10 A3031 RMK AO2
Conditions at: KMNH (MONUMENT/ELBERT , CO, US) observed 0857 UTC 24 July 2016
Temperature: 15.0°C (59°F)
Dewpoint: 10.0°C (50°F) [RH = 72%]
Pressure (altimeter): 30.31 inches Hg (1026.5 mb)
Winds: from the SSW (200 degrees) at 12 MPH (10 knots; 5.2 m/s)
Visibility: 10 or more miles (16+ km)
Ceiling: at least 12,000 feet AGL
Clouds: sky clear below 12,000 feet AGL
Weather: automated observation with no human augmentation;
there may or may not be significant weather present at this time

METAR text: KMNH 240838Z AUTO 20012KT 10SM CLR 15/10 A3031 RMK AO2 LTG DSNT E
Conditions at: KMNH (MONUMENT/ELBERT , CO, US) observed 0838 UTC 24 July 2016
Temperature: 15.0°C (59°F)
Dewpoint: 10.0°C (50°F) [RH = 72%]
Pressure (altimeter): 30.31 inches Hg (1026.5 mb)
Winds: from the SSW (200 degrees) at 14 MPH (12 knots; 6.2 m/s)
Visibility: 10 or more miles (16+ km)
Ceiling: at least 12,000 feet AGL
Clouds: sky clear below 12,000 feet AGL
Weather: automated observation with no human augmentation;
there may or may not be significant weather present at this time

METAR text: KMNH 240818Z AUTO 20008KT 10SM CLR 16/09 A3031 RMK AO2
Conditions at: KMNH (MONUMENT/ELBERT , CO, US) observed 0818 UTC 24 July 2016
Temperature: 16.0°C (61°F)
Dewpoint: 9.0°C (48°F) [RH = 63%]
Pressure (altimeter): 30.31 inches Hg (1026.5 mb)
Winds: from the SSW (200 degrees) at 9 MPH (8 knots; 4.2 m/s)
Visibility: 10 or more miles (16+ km)
Ceiling: at least 12,000 feet AGL
Clouds: sky clear below 12,000 feet AGL
Weather: automated observation with no human augmentation;
there may or may not be significant weather present at this time

METAR text: KMNH 240757Z AUTO 20011KT 10SM CLR 15/09 A3031 RMK AO2 LTG DSNT E
Conditions at: KMNH (MONUMENT/ELBERT , CO, US) observed 0757 UTC 24 July 2016
Temperature: 15.0°C (59°F)
Dewpoint: 9.0°C (48°F) [RH = 67%]
Pressure (altimeter): 30.31 inches Hg (1026.5 mb)
Winds: from the SSW (200 degrees) at 13 MPH (11 knots; 5.7 m/s)
Visibility: 10 or more miles (16+ km)
Ceiling: at least 12,000 feet AGL
Clouds: sky clear below 12,000 feet AGL
Weather: automated observation with no human augmentation;
there may or may not be significant weather present at this time

METAR text: KMNH 240737Z AUTO 20007KT 10SM CLR 15/09 A3032 RMK AO2
Conditions at: KMNH (MONUMENT/ELBERT , CO, US) observed 0737 UTC 24 July 2016
Temperature: 15.0°C (59°F)
Dewpoint: 9.0°C (48°F) [RH = 67%]
Pressure (altimeter): 30.32 inches Hg (1026.8 mb)
Winds: from the SSW (200 degrees) at 8 MPH (7 knots; 3.6 m/s)
Visibility: 10 or more miles (16+ km)
Ceiling: at least 12,000 feet AGL
Clouds: sky clear below 12,000 feet AGL
Weather: automated observation with no human augmentation;
there may or may not be significant weather present at this time

METAR text: KMNH 240717Z AUTO 20006KT 10SM CLR 16/09 A3032 RMK AO2 LTG DSNT E
Conditions at: KMNH (MONUMENT/ELBERT , CO, US) observed 0717 UTC 24 July 2016
Temperature: 16.0°C (61°F)
Dewpoint: 9.0°C (48°F) [RH = 63%]
Pressure (altimeter): 30.32 inches Hg (1026.8 mb)
Winds: from the SSW (200 degrees) at 7 MPH (6 knots; 3.1 m/s)
Visibility: 10 or more miles (16+ km)
Ceiling: at least 12,000 feet AGL
Clouds: sky clear below 12,000 feet AGL
Weather: automated observation with no human augmentation;
there may or may not be significant weather present at this time

METAR text: KMNH 240658Z AUTO 21005KT 10SM SCT120 16/10 A3032 RMK AO2 LTG DSNT E
Conditions at: KMNH (MONUMENT/ELBERT , CO, US) observed 0658 UTC 24 July 2016
Temperature: 16.0°C (61°F)
Dewpoint: 10.0°C (50°F) [RH = 68%]
Pressure (altimeter): 30.32 inches Hg (1026.8 mb)
Winds: from the SSW (210 degrees) at 6 MPH (5 knots; 2.6 m/s)
Visibility: 10 or more miles (16+ km)
Ceiling: at least 12,000 feet AGL
Clouds: scattered clouds at 12000 feet AGL
Weather: automated observation with no human augmentation;
there may or may not be significant weather present at this time

METAR text: KMNH 240638Z AUTO 19008KT 10SM SCT120 16/10 A3031 RMK AO2 LTG DSNT E
Conditions at: KMNH (MONUMENT/ELBERT , CO, US) observed 0638 UTC 24 July 2016
Temperature: 16.0°C (61°F)
Dewpoint: 10.0°C (50°F) [RH = 68%]
Pressure (altimeter): 30.31 inches Hg (1026.5 mb)
Winds: from the S (190 degrees) at 9 MPH (8 knots; 4.2 m/s)
Visibility: 10 or more miles (16+ km)
Ceiling: at least 12,000 feet AGL
Clouds: scattered clouds at 12000 feet AGL
Weather: automated observation with no human augmentation;
there may or may not be significant weather present at this time

METAR text: KMNH 240617Z AUTO 19006KT 10SM SCT120 16/10 A3031 RMK AO2
Conditions at: KMNH (MONUMENT/ELBERT , CO, US) observed 0617 UTC 24 July 2016
Temperature: 16.0°C (61°F)
Dewpoint: 10.0°C (50°F) [RH = 68%]
Pressure (altimeter): 30.31 inches Hg (1026.5 mb)
Winds: from the S (190 degrees) at 7 MPH (6 knots; 3.1 m/s)
Visibility: 10 or more miles (16+ km)
Ceiling: at least 12,000 feet AGL
Clouds: scattered clouds at 12000 feet AGL
Weather: automated observation with no human augmentation;
there may or may not be significant weather present at this time

METAR text: KMNH 240558Z AUTO 16008KT 10SM SCT120 17/10 A3031 RMK AO2
Conditions at: KMNH (MONUMENT/ELBERT , CO, US) observed 0558 UTC 24 July 2016
Temperature: 17.0°C (63°F)
Dewpoint: 10.0°C (50°F) [RH = 63%]
Pressure (altimeter): 30.31 inches Hg (1026.5 mb)
Winds: from the SSE (160 degrees) at 9 MPH (8 knots; 4.2 m/s)
Visibility: 10 or more miles (16+ km)
Ceiling: at least 12,000 feet AGL
Clouds: scattered clouds at 12000 feet AGL
Weather: automated observation with no human augmentation;
there may or may not be significant weather present at this time

METAR text: KMNH 240538Z AUTO 16011KT 10SM SCT120 17/10 A3032 RMK AO2
Conditions at: KMNH (MONUMENT/ELBERT , CO, US) observed 0538 UTC 24 July 2016
Temperature: 17.0°C (63°F)
Dewpoint: 10.0°C (50°F) [RH = 63%]
Pressure (altimeter): 30.32 inches Hg (1026.8 mb)
Winds: from the SSE (160 degrees) at 13 MPH (11 knots; 5.7 m/s)
Visibility: 10 or more miles (16+ km)
Ceiling: at least 12,000 feet AGL
Clouds: scattered clouds at 12000 feet AGL
Weather: automated observation with no human augmentation;
there may or may not be significant weather present at this time

METAR text: KMNH 240517Z AUTO 15008KT 10SM SCT120 17/10 A3031 RMK AO2
Conditions at: KMNH (MONUMENT/ELBERT , CO, US) observed 0517 UTC 24 July 2016
Temperature: 17.0°C (63°F)
Dewpoint: 10.0°C (50°F) [RH = 63%]
Pressure (altimeter): 30.31 inches Hg (1026.5 mb)
Winds: from the SSE (150 degrees) at 9 MPH (8 knots; 4.2 m/s)
Visibility: 10 or more miles (16+ km)
Ceiling: at least 12,000 feet AGL
Clouds: scattered clouds at 12000 feet AGL
Weather: automated observation with no human augmentation;
there may or may not be significant weather present at this time

METAR text: KMNH 240458Z AUTO 16010KT 10SM CLR 17/10 A3030 RMK AO2
Conditions at: KMNH (MONUMENT/ELBERT , CO, US) observed 0458 UTC 24 July 2016
Temperature: 17.0°C (63°F)
Dewpoint: 10.0°C (50°F) [RH = 63%]
Pressure (altimeter): 30.30 inches Hg (1026.2 mb)
Winds: from the SSE (160 degrees) at 12 MPH (10 knots; 5.2 m/s)
Visibility: 10 or more miles (16+ km)
Ceiling: at least 12,000 feet AGL
Clouds: sky clear below 12,000 feet AGL
Weather: automated observation with no human augmentation;
there may or may not be significant weather present at this time

METAR text: KMNH 240438Z AUTO 14008KT 10SM SCT120 17/10 A3031 RMK AO2
Conditions at: KMNH (MONUMENT/ELBERT , CO, US) observed 0438 UTC 24 July 2016
Temperature: 17.0°C (63°F)
Dewpoint: 10.0°C (50°F) [RH = 63%]
Pressure (altimeter): 30.31 inches Hg (1026.5 mb)
Winds: from the SE (140 degrees) at 9 MPH (8 knots; 4.2 m/s)
Visibility: 10 or more miles (16+ km)
Ceiling: at least 12,000 feet AGL
Clouds: scattered clouds at 12000 feet AGL
Weather: automated observation with no human augmentation;
there may or may not be significant weather present at this time

METAR text: KMNH 240418Z AUTO 12012G15KT 10SM SCT120 18/10 A3032 RMK AO2
Conditions at: KMNH (MONUMENT/ELBERT , CO, US) observed 0418 UTC 24 July 2016
Temperature: 18.0°C (64°F)
Dewpoint: 10.0°C (50°F) [RH = 59%]
Pressure (altimeter): 30.32 inches Hg (1026.8 mb)
Winds: from the ESE (120 degrees) at 14 MPH (12 knots; 6.2 m/sgusting to 17 MPH (15 knots; 7.8 m/s)
Visibility: 10 or more miles (16+ km)
Ceiling: at least 12,000 feet AGL
Clouds: scattered clouds at 12000 feet AGL
Weather: automated observation with no human augmentation;
there may or may not be significant weather present at this time

METAR text: KMNH 240358Z AUTO 14006KT 10SM CLR 17/11 A3032 RMK AO2
Conditions at: KMNH (MONUMENT/ELBERT , CO, US) observed 0358 UTC 24 July 2016
Temperature: 17.0°C (63°F)
Dewpoint: 11.0°C (52°F) [RH = 68%]
Pressure (altimeter): 30.32 inches Hg (1026.8 mb)
Winds: from the SE (140 degrees) at 7 MPH (6 knots; 3.1 m/s)
Visibility: 10 or more miles (16+ km)
Ceiling: at least 12,000 feet AGL
Clouds: sky clear below 12,000 feet AGL
Weather: automated observation with no human augmentation;
there may or may not be significant weather present at this time

METAR text: KMNH 240338Z AUTO 11004KT 10SM CLR 17/10 A3032 RMK AO2 LTG DSNT E
Conditions at: KMNH (MONUMENT/ELBERT , CO, US) observed 0338 UTC 24 July 2016
Temperature: 17.0°C (63°F)
Dewpoint: 10.0°C (50°F) [RH = 63%]
Pressure (altimeter): 30.32 inches Hg (1026.8 mb)
Winds: from the ESE (110 degrees) at 5 MPH (4 knots; 2.1 m/s)
Visibility: 10 or more miles (16+ km)
Ceiling: at least 12,000 feet AGL
Clouds: sky clear below 12,000 feet AGL
Weather: automated observation with no human augmentation;
there may or may not be significant weather present at this time

METAR text: KMNH 240318Z AUTO 02004KT 10SM SCT100 18/10 A3031 RMK AO2
Conditions at: KMNH (MONUMENT/ELBERT , CO, US) observed 0318 UTC 24 July 2016
Temperature: 18.0°C (64°F)
Dewpoint: 10.0°C (50°F) [RH = 59%]
Pressure (altimeter): 30.31 inches Hg (1026.5 mb)
Winds: from the NNE (20 degrees) at 5 MPH (4 knots; 2.1 m/s)
Visibility: 10 or more miles (16+ km)
Ceiling: at least 12,000 feet AGL
Clouds: scattered clouds at 10000 feet AGL
Weather: automated observation with no human augmentation;
there may or may not be significant weather present at this time

METAR text: KMNH 240258Z AUTO 35006KT 10SM OVC100 19/10 A3031 RMK AO2
Conditions at: KMNH (MONUMENT/ELBERT , CO, US) observed 0258 UTC 24 July 2016
Temperature: 19.0°C (66°F)
Dewpoint: 10.0°C (50°F) [RH = 56%]
Pressure (altimeter): 30.31 inches Hg (1026.5 mb)
Winds: from the N (350 degrees) at 7 MPH (6 knots; 3.1 m/s)
Visibility: 10 or more miles (16+ km)
Ceiling: 10000 feet AGL
Clouds: overcast cloud deck at 10000 feet AGL
Weather: automated observation with no human augmentation;
there may or may not be significant weather present at this time

METAR text: KMNH 240238Z AUTO 00000KT 10SM OVC100 20/09 A3030 RMK AO2
Conditions at: KMNH (MONUMENT/ELBERT , CO, US) observed 0238 UTC 24 July 2016
Temperature: 20.0°C (68°F)
Dewpoint: 9.0°C (48°F) [RH = 49%]
Pressure (altimeter): 30.30 inches Hg (1026.2 mb)
Winds: calm
Visibility: 10 or more miles (16+ km)
Ceiling: 10000 feet AGL
Clouds: overcast cloud deck at 10000 feet AGL
Weather: automated observation with no human augmentation;
there may or may not be significant weather present at this time

METAR text: KMNH 240218Z AUTO 10005KT 10SM OVC100 20/08 A3030 RMK AO2
Conditions at: KMNH (MONUMENT/ELBERT , CO, US) observed 0218 UTC 24 July 2016
Temperature: 20.0°C (68°F)
Dewpoint: 8.0°C (46°F) [RH = 46%]
Pressure (altimeter): 30.30 inches Hg (1026.2 mb)
Winds: from the E (100 degrees) at 6 MPH (5 knots; 2.6 m/s)
Visibility: 10 or more miles (16+ km)
Ceiling: 10000 feet AGL
Clouds: overcast cloud deck at 10000 feet AGL
Weather: automated observation with no human augmentation;
there may or may not be significant weather present at this time

METAR text: KMNH 240158Z AUTO 09003KT 10SM BKN110 20/08 A3029 RMK AO2 LTG DSNT SE
Conditions at: KMNH (MONUMENT/ELBERT , CO, US) observed 0158 UTC 24 July 2016
Temperature: 20.0°C (68°F)
Dewpoint: 8.0°C (46°F) [RH = 46%]
Pressure (altimeter): 30.29 inches Hg (1025.8 mb)
Winds: from the E (90 degrees) at 3 MPH (3 knots; 1.6 m/s)
Visibility: 10 or more miles (16+ km)
Ceiling: 11000 feet AGL
Clouds: broken clouds at 11000 feet AGL
Weather: automated observation with no human augmentation;
there may or may not be significant weather present at this time

METAR text: KMNH 240138Z AUTO 10003KT 10SM BKN110 21/09 A3028 RMK AO2
Conditions at: KMNH (MONUMENT/ELBERT , CO, US) observed 0138 UTC 24 July 2016
Temperature: 21.0°C (70°F)
Dewpoint: 9.0°C (48°F) [RH = 46%]
Pressure (altimeter): 30.28 inches Hg (1025.5 mb)
Winds: from the E (100 degrees) at 3 MPH (3 knots; 1.6 m/s)
Visibility: 10 or more miles (16+ km)
Ceiling: 11000 feet AGL
Clouds: broken clouds at 11000 feet AGL
Weather: automated observation with no human augmentation;
there may or may not be significant weather present at this time

METAR text: KMNH 240118Z AUTO 18007KT 10SM BKN110 20/09 A3026 RMK AO2
Conditions at: KMNH (MONUMENT/ELBERT , CO, US) observed 0118 UTC 24 July 2016
Temperature: 20.0°C (68°F)
Dewpoint: 9.0°C (48°F) [RH = 49%]
Pressure (altimeter): 30.26 inches Hg (1024.8 mb)
Winds: from the S (180 degrees) at 8 MPH (7 knots; 3.6 m/s)
Visibility: 10 or more miles (16+ km)
Ceiling: 11000 feet AGL
Clouds: broken clouds at 11000 feet AGL
Weather: automated observation with no human augmentation;
there may or may not be significant weather present at this time

METAR text: KMNH 240058Z AUTO 16012G16KT 10SM SCT120 22/08 A3024 RMK AO2 LTG DSNT NE
Conditions at: KMNH (MONUMENT/ELBERT , CO, US) observed 0058 UTC 24 July 2016
Temperature: 22.0°C (72°F)
Dewpoint: 8.0°C (46°F) [RH = 41%]
Pressure (altimeter): 30.24 inches Hg (1024.1 mb)
Winds: from the SSE (160 degrees) at 14 MPH (12 knots; 6.2 m/sgusting to 18 MPH (16 knots; 8.3 m/s)
Visibility: 10 or more miles (16+ km)
Ceiling: at least 12,000 feet AGL
Clouds: scattered clouds at 12000 feet AGL
Weather: automated observation with no human augmentation;
there may or may not be significant weather present at this time

METAR text: KMNH 240038Z AUTO 17017G26KT 10SM SCT100 SCT120 22/09 A3023 RMK AO2
Conditions at: KMNH (MONUMENT/ELBERT , CO, US) observed 0038 UTC 24 July 2016
Temperature: 22.0°C (72°F)
Dewpoint: 9.0°C (48°F) [RH = 43%]
Pressure (altimeter): 30.23 inches Hg (1023.8 mb)
Winds: from the S (170 degrees) at 20 MPH (17 knots; 8.8 m/sgusting to 30 MPH (26 knots; 13.5 m/s)
Visibility: 10 or more miles (16+ km)
Ceiling: at least 12,000 feet AGL
Clouds: scattered clouds at 10000 feet AGL
scattered clouds at 12000 feet AGL
Weather: automated observation with no human augmentation;
there may or may not be significant weather present at this time

METAR text: KMNH 240018Z AUTO 19015G21KT 10SM SCT049 BKN090 OVC120 21/09 A3024 RMK AO2 LTG DSNT NE THRU S
Conditions at: KMNH (MONUMENT/ELBERT , CO, US) observed 0018 UTC 24 July 2016
Temperature: 21.0°C (70°F)
Dewpoint: 9.0°C (48°F) [RH = 46%]
Pressure (altimeter): 30.24 inches Hg (1024.1 mb)
Winds: from the S (190 degrees) at 17 MPH (15 knots; 7.8 m/sgusting to 24 MPH (21 knots; 10.9 m/s)
Visibility: 10 or more miles (16+ km)
Ceiling: 9000 feet AGL
Clouds: scattered clouds at 4900 feet AGL
broken clouds at 9000 feet AGL
overcast cloud deck at 12000 feet AGL
Weather: automated observation with no human augmentation;
there may or may not be significant weather present at this time

METAR text: KMNH 232358Z AUTO 24018G24KT 10SM -TSRA OVC090 18/11 A3027 RMK AO2 LTG DSNT NE THRU S
Conditions at: KMNH (MONUMENT/ELBERT , CO, US) observed 2358 UTC 23 July 2016
Temperature: 18.0°C (64°F)
Dewpoint: 11.0°C (52°F) [RH = 64%]
Pressure (altimeter): 30.27 inches Hg (1025.1 mb)
Winds: from the WSW (240 degrees) at 21 MPH (18 knots; 9.4 m/sgusting to 28 MPH (24 knots; 12.5 m/s)
Visibility: 10 or more miles (16+ km)
Ceiling: 9000 feet AGL
Clouds: overcast cloud deck at 9000 feet AGL
Weather: -TSRA  (light rain associated with thunderstorm(s))

METAR text: KMNH 232338Z AUTO 22017G24KT 10SM VCTS SCT100 OVC120 25/08 A3024 RMK AO2 LTG DSNT SW THRU NW
Conditions at: KMNH (MONUMENT/ELBERT , CO, US) observed 2338 UTC 23 July 2016
Temperature: 25.0°C (77°F)
Dewpoint: 8.0°C (46°F) [RH = 34%]
Pressure (altimeter): 30.24 inches Hg (1024.1 mb)
Winds: from the SW (220 degrees) at 20 MPH (17 knots; 8.8 m/sgusting to 28 MPH (24 knots; 12.5 m/s)
Visibility: 10 or more miles (16+ km)
Ceiling: 12000 feet AGL
Clouds: scattered clouds at 10000 feet AGL
overcast cloud deck at 12000 feet AGL
Weather: VCTS  (thunderstorm in vicinity)

METAR text: KMNH 232318Z AUTO 17008KT 10SM SCT120 27/07 A3022 RMK AO2 LTG DSNT S AND SW
Conditions at: KMNH (MONUMENT/ELBERT , CO, US) observed 2318 UTC 23 July 2016
Temperature: 27.0°C (81°F)
Dewpoint: 7.0°C (45°F) [RH = 28%]
Pressure (altimeter): 30.22 inches Hg (1023.5 mb)
Winds: from the S (170 degrees) at 9 MPH (8 knots; 4.2 m/s)
Visibility: 10 or more miles (16+ km)
Ceiling: at least 12,000 feet AGL
Clouds: scattered clouds at 12000 feet AGL
Weather: automated observation with no human augmentation;
there may or may not be significant weather present at this time

METAR text: KMNH 232257Z AUTO 15010KT 10SM SCT100 29/07 A3022 RMK AO2 LTG DSNT S AND SW
Conditions at: KMNH (MONUMENT/ELBERT , CO, US) observed 2257 UTC 23 July 2016
Temperature: 29.0°C (84°F)
Dewpoint: 7.0°C (45°F) [RH = 25%]
Pressure (altimeter): 30.22 inches Hg (1023.5 mb)
Winds: from the SSE (150 degrees) at 12 MPH (10 knots; 5.2 m/s)
Visibility: 10 or more miles (16+ km)
Ceiling: at least 12,000 feet AGL
Clouds: scattered clouds at 10000 feet AGL
Weather: automated observation with no human augmentation;
there may or may not be significant weather present at this time

METAR text: KMNH 232238Z AUTO 20006KT 10SM SCT100 27/07 A3022 RMK AO2 LTG DSNT SW
Conditions at: KMNH (MONUMENT/ELBERT , CO, US) observed 2238 UTC 23 July 2016
Temperature: 27.0°C (81°F)
Dewpoint: 7.0°C (45°F) [RH = 28%]
Pressure (altimeter): 30.22 inches Hg (1023.5 mb)
Winds: from the SSW (200 degrees) at 7 MPH (6 knots; 3.1 m/s)
Visibility: 10 or more miles (16+ km)
Ceiling: at least 12,000 feet AGL
Clouds: scattered clouds at 10000 feet AGL
Weather: automated observation with no human augmentation;
there may or may not be significant weather present at this time

METAR text: KMNH 232218Z AUTO 20004G14KT 10SM SCT100 27/07 A3023 RMK AO2
Conditions at: KMNH (MONUMENT/ELBERT , CO, US) observed 2218 UTC 23 July 2016
Temperature: 27.0°C (81°F)
Dewpoint: 7.0°C (45°F) [RH = 28%]
Pressure (altimeter): 30.23 inches Hg (1023.8 mb)
Winds: from the SSW (200 degrees) at 5 MPH (4 knots; 2.1 m/sgusting to 16 MPH (14 knots; 7.3 m/s)
Visibility: 10 or more miles (16+ km)
Ceiling: at least 12,000 feet AGL
Clouds: scattered clouds at 10000 feet AGL
Weather: automated observation with no human augmentation;
there may or may not be significant weather present at this time

METAR text: KMNH 232158Z AUTO 25006KT 10SM CLR 30/06 A3023 RMK AO2
Conditions at: KMNH (MONUMENT/ELBERT , CO, US) observed 2158 UTC 23 July 2016
Temperature: 30.0°C (86°F)
Dewpoint: 6.0°C (43°F) [RH = 22%]
Pressure (altimeter): 30.23 inches Hg (1023.8 mb)
Winds: from the WSW (250 degrees) at 7 MPH (6 knots; 3.1 m/s)
Visibility: 10 or more miles (16+ km)
Ceiling: at least 12,000 feet AGL
Clouds: sky clear below 12,000 feet AGL
Weather: automated observation with no human augmentation;
there may or may not be significant weather present at this time

METAR text: KMNH 232138Z AUTO 00000KT 10SM CLR 28/05 A3024 RMK AO2
Conditions at: KMNH (MONUMENT/ELBERT , CO, US) observed 2138 UTC 23 July 2016
Temperature: 28.0°C (82°F)
Dewpoint: 5.0°C (41°F) [RH = 23%]
Pressure (altimeter): 30.24 inches Hg (1024.1 mb)
Winds: calm
Visibility: 10 or more miles (16+ km)
Ceiling: at least 12,000 feet AGL
Clouds: sky clear below 12,000 feet AGL
Weather: automated observation with no human augmentation;
there may or may not be significant weather present at this time

METAR text: KMNH 232118Z AUTO 16003KT 10SM CLR 29/05 A3025 RMK AO2
Conditions at: KMNH (MONUMENT/ELBERT , CO, US) observed 2118 UTC 23 July 2016
Temperature: 29.0°C (84°F)
Dewpoint: 5.0°C (41°F) [RH = 22%]
Pressure (altimeter): 30.25 inches Hg (1024.5 mb)
Winds: from the SSE (160 degrees) at 3 MPH (3 knots; 1.6 m/s)
Visibility: 10 or more miles (16+ km)
Ceiling: at least 12,000 feet AGL
Clouds: sky clear below 12,000 feet AGL
Weather: automated observation with no human augmentation;
there may or may not be significant weather present at this time

METAR text: KMNH 232058Z AUTO 00000KT 10SM CLR 28/04 A3025 RMK AO2
Conditions at: KMNH (MONUMENT/ELBERT , CO, US) observed 2058 UTC 23 July 2016
Temperature: 28.0°C (82°F)
Dewpoint: 4.0°C (39°F) [RH = 22%]
Pressure (altimeter): 30.25 inches Hg (1024.5 mb)
Winds: calm
Visibility: 10 or more miles (16+ km)
Ceiling: at least 12,000 feet AGL
Clouds: sky clear below 12,000 feet AGL
Weather: automated observation with no human augmentation;
there may or may not be significant weather present at this time

METAR text: KMNH 232038Z AUTO 36004KT 10SM CLR 28/05 A3025 RMK AO2
Conditions at: KMNH (MONUMENT/ELBERT , CO, US) observed 2038 UTC 23 July 2016
Temperature: 28.0°C (82°F)
Dewpoint: 5.0°C (41°F) [RH = 23%]
Pressure (altimeter): 30.25 inches Hg (1024.5 mb)
Winds: from the N (360 degrees) at 5 MPH (4 knots; 2.1 m/s)
Visibility: 10 or more miles (16+ km)
Ceiling: at least 12,000 feet AGL
Clouds: sky clear below 12,000 feet AGL
Weather: automated observation with no human augmentation;
there may or may not be significant weather present at this time

METAR text: KMNH 232018Z AUTO 10004KT 10SM SCT095 29/06 A3026 RMK AO2
Conditions at: KMNH (MONUMENT/ELBERT , CO, US) observed 2018 UTC 23 July 2016
Temperature: 29.0°C (84°F)
Dewpoint: 6.0°C (43°F) [RH = 23%]
Pressure (altimeter): 30.26 inches Hg (1024.8 mb)
Winds: from the E (100 degrees) at 5 MPH (4 knots; 2.1 m/s)
Visibility: 10 or more miles (16+ km)
Ceiling: at least 12,000 feet AGL
Clouds: scattered clouds at 9500 feet AGL
Weather: automated observation with no human augmentation;
there may or may not be significant weather present at this time

METAR text: KMNH 231958Z AUTO 03004KT 10SM SCT095 29/05 A3027 RMK AO2
Conditions at: KMNH (MONUMENT/ELBERT , CO, US) observed 1958 UTC 23 July 2016
Temperature: 29.0°C (84°F)
Dewpoint: 5.0°C (41°F) [RH = 22%]
Pressure (altimeter): 30.27 inches Hg (1025.1 mb)
Winds: from the NNE (30 degrees) at 5 MPH (4 knots; 2.1 m/s)
Visibility: 10 or more miles (16+ km)
Ceiling: at least 12,000 feet AGL
Clouds: scattered clouds at 9500 feet AGL
Weather: automated observation with no human augmentation;
there may or may not be significant weather present at this time

METAR text: KMNH 231937Z AUTO 05005KT 10SM CLR 28/07 A3027 RMK AO2
Conditions at: KMNH (MONUMENT/ELBERT , CO, US) observed 1937 UTC 23 July 2016
Temperature: 28.0°C (82°F)
Dewpoint: 7.0°C (45°F) [RH = 27%]
Pressure (altimeter): 30.27 inches Hg (1025.1 mb)
Winds: from the NE (50 degrees) at 6 MPH (5 knots; 2.6 m/s)
Visibility: 10 or more miles (16+ km)
Ceiling: at least 12,000 feet AGL
Clouds: sky clear below 12,000 feet AGL
Weather: automated observation with no human augmentation;
there may or may not be significant weather present at this time

METAR text: KMNH 231918Z AUTO 00000KT 10SM CLR 28/06 A3028 RMK AO2
Conditions at: KMNH (MONUMENT/ELBERT , CO, US) observed 1918 UTC 23 July 2016
Temperature: 28.0°C (82°F)
Dewpoint: 6.0°C (43°F) [RH = 25%]
Pressure (altimeter): 30.28 inches Hg (1025.5 mb)
Winds: calm
Visibility: 10 or more miles (16+ km)
Ceiling: at least 12,000 feet AGL
Clouds: sky clear below 12,000 feet AGL
Weather: automated observation with no human augmentation;
there may or may not be significant weather present at this time

METAR text: KMNH 231858Z AUTO 11004KT 10SM CLR 28/06 A3028 RMK AO2
Conditions at: KMNH (MONUMENT/ELBERT , CO, US) observed 1858 UTC 23 July 2016
Temperature: 28.0°C (82°F)
Dewpoint: 6.0°C (43°F) [RH = 25%]
Pressure (altimeter): 30.28 inches Hg (1025.5 mb)
Winds: from the ESE (110 degrees) at 5 MPH (4 knots; 2.1 m/s)
Visibility: 10 or more miles (16+ km)
Ceiling: at least 12,000 feet AGL
Clouds: sky clear below 12,000 feet AGL
Weather: automated observation with no human augmentation;
there may or may not be significant weather present at this time

METAR text: KMNH 231838Z AUTO 27003KT 10SM CLR 28/06 A3029 RMK AO2
Conditions at: KMNH (MONUMENT/ELBERT , CO, US) observed 1838 UTC 23 July 2016
Temperature: 28.0°C (82°F)
Dewpoint: 6.0°C (43°F) [RH = 25%]
Pressure (altimeter): 30.29 inches Hg (1025.8 mb)
Winds: from the W (270 degrees) at 3 MPH (3 knots; 1.6 m/s)
Visibility: 10 or more miles (16+ km)
Ceiling: at least 12,000 feet AGL
Clouds: sky clear below 12,000 feet AGL
Weather: automated observation with no human augmentation;
there may or may not be significant weather present at this time

METAR text: KMNH 231818Z AUTO 25004KT 10SM CLR 28/05 A3029 RMK AO2
Conditions at: KMNH (MONUMENT/ELBERT , CO, US) observed 1818 UTC 23 July 2016
Temperature: 28.0°C (82°F)
Dewpoint: 5.0°C (41°F) [RH = 23%]
Pressure (altimeter): 30.29 inches Hg (1025.8 mb)
Winds: from the WSW (250 degrees) at 5 MPH (4 knots; 2.1 m/s)
Visibility: 10 or more miles (16+ km)
Ceiling: at least 12,000 feet AGL
Clouds: sky clear below 12,000 feet AGL
Weather: automated observation with no human augmentation;
there may or may not be significant weather present at this time

METAR text: KMNH 231757Z AUTO 32003KT 10SM CLR 27/06 A3029 RMK AO2
Conditions at: KMNH (MONUMENT/ELBERT , CO, US) observed 1757 UTC 23 July 2016
Temperature: 27.0°C (81°F)
Dewpoint: 6.0°C (43°F) [RH = 26%]
Pressure (altimeter): 30.29 inches Hg (1025.8 mb)
Winds: from the NW (320 degrees) at 3 MPH (3 knots; 1.6 m/s)
Visibility: 10 or more miles (16+ km)
Ceiling: at least 12,000 feet AGL
Clouds: sky clear below 12,000 feet AGL
Weather: automated observation with no human augmentation;
there may or may not be significant weather present at this time

METAR text: KMNH 231738Z AUTO 00000KT 10SM CLR 27/06 A3029 RMK AO2
Conditions at: KMNH (MONUMENT/ELBERT , CO, US) observed 1738 UTC 23 July 2016
Temperature: 27.0°C (81°F)
Dewpoint: 6.0°C (43°F) [RH = 26%]
Pressure (altimeter): 30.29 inches Hg (1025.8 mb)
Winds: calm
Visibility: 10 or more miles (16+ km)
Ceiling: at least 12,000 feet AGL
Clouds: sky clear below 12,000 feet AGL
Weather: automated observation with no human augmentation;
there may or may not be significant weather present at this time

METAR text: KMNH 231718Z AUTO 00000KT 10SM CLR 26/06 A3029 RMK AO2
Conditions at: KMNH (MONUMENT/ELBERT , CO, US) observed 1718 UTC 23 July 2016
Temperature: 26.0°C (79°F)
Dewpoint: 6.0°C (43°F) [RH = 28%]
Pressure (altimeter): 30.29 inches Hg (1025.8 mb)
Winds: calm
Visibility: 10 or more miles (16+ km)
Ceiling: at least 12,000 feet AGL
Clouds: sky clear below 12,000 feet AGL
Weather: automated observation with no human augmentation;
there may or may not be significant weather present at this time

METAR text: KMNH 231657Z AUTO 35004KT 10SM CLR 26/06 A3029 RMK AO2
Conditions at: KMNH (MONUMENT/ELBERT , CO, US) observed 1657 UTC 23 July 2016
Temperature: 26.0°C (79°F)
Dewpoint: 6.0°C (43°F) [RH = 28%]
Pressure (altimeter): 30.29 inches Hg (1025.8 mb)
Winds: from the N (350 degrees) at 5 MPH (4 knots; 2.1 m/s)
Visibility: 10 or more miles (16+ km)
Ceiling: at least 12,000 feet AGL
Clouds: sky clear below 12,000 feet AGL
Weather: automated observation with no human augmentation;
there may or may not be significant weather present at this time

METAR text: KMNH 231638Z AUTO 34005KT 10SM CLR 26/06 A3029 RMK AO2
Conditions at: KMNH (MONUMENT/ELBERT , CO, US) observed 1638 UTC 23 July 2016
Temperature: 26.0°C (79°F)
Dewpoint: 6.0°C (43°F) [RH = 28%]
Pressure (altimeter): 30.29 inches Hg (1025.8 mb)
Winds: from the NNW (340 degrees) at 6 MPH (5 knots; 2.6 m/s)
Visibility: 10 or more miles (16+ km)
Ceiling: at least 12,000 feet AGL
Clouds: sky clear below 12,000 feet AGL
Weather: automated observation with no human augmentation;
there may or may not be significant weather present at this time

METAR text: KMNH 231618Z AUTO 32005KT 10SM CLR 26/06 A3029 RMK AO2
Conditions at: KMNH (MONUMENT/ELBERT , CO, US) observed 1618 UTC 23 July 2016
Temperature: 26.0°C (79°F)
Dewpoint: 6.0°C (43°F) [RH = 28%]
Pressure (altimeter): 30.29 inches Hg (1025.8 mb)
Winds: from the NW (320 degrees) at 6 MPH (5 knots; 2.6 m/s)
Visibility: 10 or more miles (16+ km)
Ceiling: at least 12,000 feet AGL
Clouds: sky clear below 12,000 feet AGL
Weather: automated observation with no human augmentation;
there may or may not be significant weather present at this time

METAR text: KMNH 231558Z AUTO 30006KT 10SM CLR 26/07 A3028 RMK AO2
Conditions at: KMNH (MONUMENT/ELBERT , CO, US) observed 1558 UTC 23 July 2016
Temperature: 26.0°C (79°F)
Dewpoint: 7.0°C (45°F) [RH = 30%]
Pressure (altimeter): 30.28 inches Hg (1025.5 mb)
Winds: from the WNW (300 degrees) at 7 MPH (6 knots; 3.1 m/s)
Visibility: 10 or more miles (16+ km)
Ceiling: at least 12,000 feet AGL
Clouds: sky clear below 12,000 feet AGL
Weather: automated observation with no human augmentation;
there may or may not be significant weather present at this time

METAR text: KMNH 231538Z AUTO 30005KT 10SM CLR 25/08 A3028 RMK AO2
Conditions at: KMNH (MONUMENT/ELBERT , CO, US) observed 1538 UTC 23 July 2016
Temperature: 25.0°C (77°F)
Dewpoint: 8.0°C (46°F) [RH = 34%]
Pressure (altimeter): 30.28 inches Hg (1025.5 mb)
Winds: from the WNW (300 degrees) at 6 MPH (5 knots; 2.6 m/s)
Visibility: 10 or more miles (16+ km)
Ceiling: at least 12,000 feet AGL
Clouds: sky clear below 12,000 feet AGL
Weather: automated observation with no human augmentation;
there may or may not be significant weather present at this time

METAR text: KMNH 231518Z AUTO 29005KT 10SM CLR 24/08 A3028 RMK AO2
Conditions at: KMNH (MONUMENT/ELBERT , CO, US) observed 1518 UTC 23 July 2016
Temperature: 24.0°C (75°F)
Dewpoint: 8.0°C (46°F) [RH = 36%]
Pressure (altimeter): 30.28 inches Hg (1025.5 mb)
Winds: from the WNW (290 degrees) at 6 MPH (5 knots; 2.6 m/s)
Visibility: 10 or more miles (16+ km)
Ceiling: at least 12,000 feet AGL
Clouds: sky clear below 12,000 feet AGL
Weather: automated observation with no human augmentation;
there may or may not be significant weather present at this time

METAR text: KMNH 231458Z AUTO 28005KT 10SM CLR 23/10 A3028 RMK AO2
Conditions at: KMNH (MONUMENT/ELBERT , CO, US) observed 1458 UTC 23 July 2016
Temperature: 23.0°C (73°F)
Dewpoint: 10.0°C (50°F) [RH = 44%]
Pressure (altimeter): 30.28 inches Hg (1025.5 mb)
Winds: from the W (280 degrees) at 6 MPH (5 knots; 2.6 m/s)
Visibility: 10 or more miles (16+ km)
Ceiling: at least 12,000 feet AGL
Clouds: sky clear below 12,000 feet AGL
Weather: automated observation with no human augmentation;
there may or may not be significant weather present at this time

METAR text: KMNH 231438Z AUTO 28005KT 10SM CLR 23/10 A3028 RMK AO2
Conditions at: KMNH (MONUMENT/ELBERT , CO, US) observed 1438 UTC 23 July 2016
Temperature: 23.0°C (73°F)
Dewpoint: 10.0°C (50°F) [RH = 44%]
Pressure (altimeter): 30.28 inches Hg (1025.5 mb)
Winds: from the W (280 degrees) at 6 MPH (5 knots; 2.6 m/s)
Visibility: 10 or more miles (16+ km)
Ceiling: at least 12,000 feet AGL
Clouds: sky clear below 12,000 feet AGL
Weather: automated observation with no human augmentation;
there may or may not be significant weather present at this time

METAR text: KMNH 231418Z AUTO 27006KT 10SM CLR 22/09 A3027 RMK AO2
Conditions at: KMNH (MONUMENT/ELBERT , CO, US) observed 1418 UTC 23 July 2016
Temperature: 22.0°C (72°F)
Dewpoint: 9.0°C (48°F) [RH = 43%]
Pressure (altimeter): 30.27 inches Hg (1025.1 mb)
Winds: from the W (270 degrees) at 7 MPH (6 knots; 3.1 m/s)
Visibility: 10 or more miles (16+ km)
Ceiling: at least 12,000 feet AGL
Clouds: sky clear below 12,000 feet AGL
Weather: automated observation with no human augmentation;
there may or may not be significant weather present at this time

METAR text: KMNH 231358Z AUTO 27004KT 10SM CLR 21/09 A3027 RMK AO2
Conditions at: KMNH (MONUMENT/ELBERT , CO, US) observed 1358 UTC 23 July 2016
Temperature: 21.0°C (70°F)
Dewpoint: 9.0°C (48°F) [RH = 46%]
Pressure (altimeter): 30.27 inches Hg (1025.1 mb)
Winds: from the W (270 degrees) at 5 MPH (4 knots; 2.1 m/s)
Visibility: 10 or more miles (16+ km)
Ceiling: at least 12,000 feet AGL
Clouds: sky clear below 12,000 feet AGL
Weather: automated observation with no human augmentation;
there may or may not be significant weather present at this time

METAR text: KMNH 231338Z AUTO 26006KT 10SM CLR 20/08 A3027 RMK AO2
Conditions at: KMNH (MONUMENT/ELBERT , CO, US) observed 1338 UTC 23 July 2016
Temperature: 20.0°C (68°F)
Dewpoint: 8.0°C (46°F) [RH = 46%]
Pressure (altimeter): 30.27 inches Hg (1025.1 mb)
Winds: from the W (260 degrees) at 7 MPH (6 knots; 3.1 m/s)
Visibility: 10 or more miles (16+ km)
Ceiling: at least 12,000 feet AGL
Clouds: sky clear below 12,000 feet AGL
Weather: automated observation with no human augmentation;
there may or may not be significant weather present at this time

METAR text: KMNH 231318Z AUTO 26006KT 10SM CLR 17/09 A3026 RMK AO2
Conditions at: KMNH (MONUMENT/ELBERT , CO, US) observed 1318 UTC 23 July 2016
Temperature: 17.0°C (63°F)
Dewpoint: 9.0°C (48°F) [RH = 59%]
Pressure (altimeter): 30.26 inches Hg (1024.8 mb)
Winds: from the W (260 degrees) at 7 MPH (6 knots; 3.1 m/s)
Visibility: 10 or more miles (16+ km)
Ceiling: at least 12,000 feet AGL
Clouds: sky clear below 12,000 feet AGL
Weather: automated observation with no human augmentation;
there may or may not be significant weather present at this time

METAR text: KMNH 231258Z AUTO 27006KT 10SM CLR 17/08 A3026 RMK AO2
Conditions at: KMNH (MONUMENT/ELBERT , CO, US) observed 1258 UTC 23 July 2016
Temperature: 17.0°C (63°F)
Dewpoint: 8.0°C (46°F) [RH = 55%]
Pressure (altimeter): 30.26 inches Hg (1024.8 mb)
Winds: from the W (270 degrees) at 7 MPH (6 knots; 3.1 m/s)
Visibility: 10 or more miles (16+ km)
Ceiling: at least 12,000 feet AGL
Clouds: sky clear below 12,000 feet AGL
Weather: automated observation with no human augmentation;
there may or may not be significant weather present at this time

METAR text: KMNH 231238Z AUTO 25006KT 10SM CLR 16/07 A3026 RMK AO2
Conditions at: KMNH (MONUMENT/ELBERT , CO, US) observed 1238 UTC 23 July 2016
Temperature: 16.0°C (61°F)
Dewpoint: 7.0°C (45°F) [RH = 55%]
Pressure (altimeter): 30.26 inches Hg (1024.8 mb)
Winds: from the WSW (250 degrees) at 7 MPH (6 knots; 3.1 m/s)
Visibility: 10 or more miles (16+ km)
Ceiling: at least 12,000 feet AGL
Clouds: sky clear below 12,000 feet AGL
Weather: automated observation with no human augmentation;
there may or may not be significant weather present at this time

METAR text: KMNH 231218Z AUTO 26006KT 10SM CLR 14/07 A3026 RMK AO2
Conditions at: KMNH (MONUMENT/ELBERT , CO, US) observed 1218 UTC 23 July 2016
Temperature: 14.0°C (57°F)
Dewpoint: 7.0°C (45°F) [RH = 63%]
Pressure (altimeter): 30.26 inches Hg (1024.8 mb)
Winds: from the W (260 degrees) at 7 MPH (6 knots; 3.1 m/s)
Visibility: 10 or more miles (16+ km)
Ceiling: at least 12,000 feet AGL
Clouds: sky clear below 12,000 feet AGL
Weather: automated observation with no human augmentation;
there may or may not be significant weather present at this time

METAR text: KMNH 231158Z AUTO 25006KT 10SM CLR 15/06 A3025 RMK AO2
Conditions at: KMNH (MONUMENT/ELBERT , CO, US) observed 1158 UTC 23 July 2016
Temperature: 15.0°C (59°F)
Dewpoint: 6.0°C (43°F) [RH = 55%]
Pressure (altimeter): 30.25 inches Hg (1024.5 mb)
Winds: from the WSW (250 degrees) at 7 MPH (6 knots; 3.1 m/s)
Visibility: 10 or more miles (16+ km)
Ceiling: at least 12,000 feet AGL
Clouds: sky clear below 12,000 feet AGL
Weather: automated observation with no human augmentation;
there may or may not be significant weather present at this time

METAR text: KMNH 231138Z AUTO 27006KT 10SM CLR 13/07 A3025 RMK AO2
Conditions at: KMNH (MONUMENT/ELBERT , CO, US) observed 1138 UTC 23 July 2016
Temperature: 13.0°C (55°F)
Dewpoint: 7.0°C (45°F) [RH = 67%]
Pressure (altimeter): 30.25 inches Hg (1024.5 mb)
Winds: from the W (270 degrees) at 7 MPH (6 knots; 3.1 m/s)
Visibility: 10 or more miles (16+ km)
Ceiling: at least 12,000 feet AGL
Clouds: sky clear below 12,000 feet AGL
Weather: automated observation with no human augmentation;
there may or may not be significant weather present at this time

METAR text: KMNH 231118Z AUTO 25006KT 10SM CLR 14/07 A3025 RMK AO2
Conditions at: KMNH (MONUMENT/ELBERT , CO, US) observed 1118 UTC 23 July 2016
Temperature: 14.0°C (57°F)
Dewpoint: 7.0°C (45°F) [RH = 63%]
Pressure (altimeter): 30.25 inches Hg (1024.5 mb)
Winds: from the WSW (250 degrees) at 7 MPH (6 knots; 3.1 m/s)
Visibility: 10 or more miles (16+ km)
Ceiling: at least 12,000 feet AGL
Clouds: sky clear below 12,000 feet AGL
Weather: automated observation with no human augmentation;
there may or may not be significant weather present at this time

METAR text: KMNH 231058Z AUTO 26006KT 10SM CLR 13/08 A3025 RMK AO2
Conditions at: KMNH (MONUMENT/ELBERT , CO, US) observed 1058 UTC 23 July 2016
Temperature: 13.0°C (55°F)
Dewpoint: 8.0°C (46°F) [RH = 72%]
Pressure (altimeter): 30.25 inches Hg (1024.5 mb)
Winds: from the W (260 degrees) at 7 MPH (6 knots; 3.1 m/s)
Visibility: 10 or more miles (16+ km)
Ceiling: at least 12,000 feet AGL
Clouds: sky clear below 12,000 feet AGL
Weather: automated observation with no human augmentation;
there may or may not be significant weather present at this time

METAR text: KMNH 231037Z AUTO 26005KT 10SM CLR 13/08 A3025 RMK AO2
Conditions at: KMNH (MONUMENT/ELBERT , CO, US) observed 1037 UTC 23 July 2016
Temperature: 13.0°C (55°F)
Dewpoint: 8.0°C (46°F) [RH = 72%]
Pressure (altimeter): 30.25 inches Hg (1024.5 mb)
Winds: from the W (260 degrees) at 6 MPH (5 knots; 2.6 m/s)
Visibility: 10 or more miles (16+ km)
Ceiling: at least 12,000 feet AGL
Clouds: sky clear below 12,000 feet AGL
Weather: automated observation with no human augmentation;
there may or may not be significant weather present at this time

METAR text: KMNH 231018Z AUTO 26006KT 10SM CLR 14/08 A3025 RMK AO2
Conditions at: KMNH (MONUMENT/ELBERT , CO, US) observed 1018 UTC 23 July 2016
Temperature: 14.0°C (57°F)
Dewpoint: 8.0°C (46°F) [RH = 67%]
Pressure (altimeter): 30.25 inches Hg (1024.5 mb)
Winds: from the W (260 degrees) at 7 MPH (6 knots; 3.1 m/s)
Visibility: 10 or more miles (16+ km)
Ceiling: at least 12,000 feet AGL
Clouds: sky clear below 12,000 feet AGL
Weather: automated observation with no human augmentation;
there may or may not be significant weather present at this time

METAR text: KMNH 230958Z AUTO 26009KT 10SM CLR 15/08 A3025 RMK AO2
Conditions at: KMNH (MONUMENT/ELBERT , CO, US) observed 0958 UTC 23 July 2016
Temperature: 15.0°C (59°F)
Dewpoint: 8.0°C (46°F) [RH = 63%]
Pressure (altimeter): 30.25 inches Hg (1024.5 mb)
Winds: from the W (260 degrees) at 10 MPH (9 knots; 4.7 m/s)
Visibility: 10 or more miles (16+ km)
Ceiling: at least 12,000 feet AGL
Clouds: sky clear below 12,000 feet AGL
Weather: automated observation with no human augmentation;
there may or may not be significant weather present at this time

METAR text: KMNH 230938Z AUTO 26007KT 10SM CLR 14/08 A3026 RMK AO2
Conditions at: KMNH (MONUMENT/ELBERT , CO, US) observed 0938 UTC 23 July 2016
Temperature: 14.0°C (57°F)
Dewpoint: 8.0°C (46°F) [RH = 67%]
Pressure (altimeter): 30.26 inches Hg (1024.8 mb)
Winds: from the W (260 degrees) at 8 MPH (7 knots; 3.6 m/s)
Visibility: 10 or more miles (16+ km)
Ceiling: at least 12,000 feet AGL
Clouds: sky clear below 12,000 feet AGL
Weather: automated observation with no human augmentation;
there may or may not be significant weather present at this time

METAR text: KMNH 230918Z AUTO 25008KT 10SM CLR 14/08 A3026 RMK AO2
Conditions at: KMNH (MONUMENT/ELBERT , CO, US) observed 0918 UTC 23 July 2016
Temperature: 14.0°C (57°F)
Dewpoint: 8.0°C (46°F) [RH = 67%]
Pressure (altimeter): 30.26 inches Hg (1024.8 mb)
Winds: from the WSW (250 degrees) at 9 MPH (8 knots; 4.2 m/s)
Visibility: 10 or more miles (16+ km)
Ceiling: at least 12,000 feet AGL
Clouds: sky clear below 12,000 feet AGL
Weather: automated observation with no human augmentation;
there may or may not be significant weather present at this time

METAR text: KMNH 230858Z AUTO 25007KT 10SM CLR 15/08 A3027 RMK AO2
Conditions at: KMNH (MONUMENT/ELBERT , CO, US) observed 0858 UTC 23 July 2016
Temperature: 15.0°C (59°F)
Dewpoint: 8.0°C (46°F) [RH = 63%]
Pressure (altimeter): 30.27 inches Hg (1025.1 mb)
Winds: from the WSW (250 degrees) at 8 MPH (7 knots; 3.6 m/s)
Visibility: 10 or more miles (16+ km)
Ceiling: at least 12,000 feet AGL
Clouds: sky clear below 12,000 feet AGL
Weather: automated observation with no human augmentation;
there may or may not be significant weather present at this time

METAR text: KMNH 230837Z AUTO 25007KT 10SM CLR 15/08 A3027 RMK AO2
Conditions at: KMNH (MONUMENT/ELBERT , CO, US) observed 0837 UTC 23 July 2016
Temperature: 15.0°C (59°F)
Dewpoint: 8.0°C (46°F) [RH = 63%]
Pressure (altimeter): 30.27 inches Hg (1025.1 mb)
Winds: from the WSW (250 degrees) at 8 MPH (7 knots; 3.6 m/s)
Visibility: 10 or more miles (16+ km)
Ceiling: at least 12,000 feet AGL
Clouds: sky clear below 12,000 feet AGL
Weather: automated observation with no human augmentation;
there may or may not be significant weather present at this time

METAR text: KMNH 230818Z AUTO 24008KT 10SM CLR 16/08 A3027 RMK AO2
Conditions at: KMNH (MONUMENT/ELBERT , CO, US) observed 0818 UTC 23 July 2016
Temperature: 16.0°C (61°F)
Dewpoint: 8.0°C (46°F) [RH = 59%]
Pressure (altimeter): 30.27 inches Hg (1025.1 mb)
Winds: from the WSW (240 degrees) at 9 MPH (8 knots; 4.2 m/s)
Visibility: 10 or more miles (16+ km)
Ceiling: at least 12,000 feet AGL
Clouds: sky clear below 12,000 feet AGL
Weather: automated observation with no human augmentation;
there may or may not be significant weather present at this time

METAR text: KMNH 230758Z AUTO 24006KT 10SM CLR 16/09 A3027 RMK AO2
Conditions at: KMNH (MONUMENT/ELBERT , CO, US) observed 0758 UTC 23 July 2016
Temperature: 16.0°C (61°F)
Dewpoint: 9.0°C (48°F) [RH = 63%]
Pressure (altimeter): 30.27 inches Hg (1025.1 mb)
Winds: from the WSW (240 degrees) at 7 MPH (6 knots; 3.1 m/s)
Visibility: 10 or more miles (16+ km)
Ceiling: at least 12,000 feet AGL
Clouds: sky clear below 12,000 feet AGL
Weather: automated observation with no human augmentation;
there may or may not be significant weather present at this time

METAR text: KMNH 230738Z AUTO 23006KT 10SM CLR 16/08 A3028 RMK AO2
Conditions at: KMNH (MONUMENT/ELBERT , CO, US) observed 0738 UTC 23 July 2016
Temperature: 16.0°C (61°F)
Dewpoint: 8.0°C (46°F) [RH = 59%]
Pressure (altimeter): 30.28 inches Hg (1025.5 mb)
Winds: from the SW (230 degrees) at 7 MPH (6 knots; 3.1 m/s)
Visibility: 10 or more miles (16+ km)
Ceiling: at least 12,000 feet AGL
Clouds: sky clear below 12,000 feet AGL
Weather: automated observation with no human augmentation;
there may or may not be significant weather present at this time

METAR text: KMNH 230718Z AUTO 23005KT 10SM CLR 18/08 A3028 RMK AO2
Conditions at: KMNH (MONUMENT/ELBERT , CO, US) observed 0718 UTC 23 July 2016
Temperature: 18.0°C (64°F)
Dewpoint: 8.0°C (46°F) [RH = 52%]
Pressure (altimeter): 30.28 inches Hg (1025.5 mb)
Winds: from the SW (230 degrees) at 6 MPH (5 knots; 2.6 m/s)
Visibility: 10 or more miles (16+ km)
Ceiling: at least 12,000 feet AGL
Clouds: sky clear below 12,000 feet AGL
Weather: automated observation with no human augmentation;
there may or may not be significant weather present at this time

METAR text: KMNH 230658Z AUTO 24008KT 10SM CLR 17/08 A3028 RMK AO2
Conditions at: KMNH (MONUMENT/ELBERT , CO, US) observed 0658 UTC 23 July 2016
Temperature: 17.0°C (63°F)
Dewpoint: 8.0°C (46°F) [RH = 55%]
Pressure (altimeter): 30.28 inches Hg (1025.5 mb)
Winds: from the WSW (240 degrees) at 9 MPH (8 knots; 4.2 m/s)
Visibility: 10 or more miles (16+ km)
Ceiling: at least 12,000 feet AGL
Clouds: sky clear below 12,000 feet AGL
Weather: automated observation with no human augmentation;
there may or may not be significant weather present at this time

METAR text: KMNH 230638Z AUTO 24008KT 10SM CLR 16/08 A3028 RMK AO2
Conditions at: KMNH (MONUMENT/ELBERT , CO, US) observed 0638 UTC 23 July 2016
Temperature: 16.0°C (61°F)
Dewpoint: 8.0°C (46°F) [RH = 59%]
Pressure (altimeter): 30.28 inches Hg (1025.5 mb)
Winds: from the WSW (240 degrees) at 9 MPH (8 knots; 4.2 m/s)
Visibility: 10 or more miles (16+ km)
Ceiling: at least 12,000 feet AGL
Clouds: sky clear below 12,000 feet AGL
Weather: automated observation with no human augmentation;
there may or may not be significant weather present at this time

METAR text: KMNH 230618Z AUTO 24007KT 10SM CLR 16/09 A3028 RMK AO2
Conditions at: KMNH (MONUMENT/ELBERT , CO, US) observed 0618 UTC 23 July 2016
Temperature: 16.0°C (61°F)
Dewpoint: 9.0°C (48°F) [RH = 63%]
Pressure (altimeter): 30.28 inches Hg (1025.5 mb)
Winds: from the WSW (240 degrees) at 8 MPH (7 knots; 3.6 m/s)
Visibility: 10 or more miles (16+ km)
Ceiling: at least 12,000 feet AGL
Clouds: sky clear below 12,000 feet AGL
Weather: automated observation with no human augmentation;
there may or may not be significant weather present at this time

METAR text: KMNH 230558Z AUTO 23009KT 10SM CLR 18/08 A3027 RMK AO2
Conditions at: KMNH (MONUMENT/ELBERT , CO, US) observed 0558 UTC 23 July 2016
Temperature: 18.0°C (64°F)
Dewpoint: 8.0°C (46°F) [RH = 52%]
Pressure (altimeter): 30.27 inches Hg (1025.1 mb)
Winds: from the SW (230 degrees) at 10 MPH (9 knots; 4.7 m/s)
Visibility: 10 or more miles (16+ km)
Ceiling: at least 12,000 feet AGL
Clouds: sky clear below 12,000 feet AGL
Weather: automated observation with no human augmentation;
there may or may not be significant weather present at this time

METAR text: KMNH 230538Z AUTO 24008KT 10SM CLR 17/09 A3029 RMK AO2
Conditions at: KMNH (MONUMENT/ELBERT , CO, US) observed 0538 UTC 23 July 2016
Temperature: 17.0°C (63°F)
Dewpoint: 9.0°C (48°F) [RH = 59%]
Pressure (altimeter): 30.29 inches Hg (1025.8 mb)
Winds: from the WSW (240 degrees) at 9 MPH (8 knots; 4.2 m/s)
Visibility: 10 or more miles (16+ km)
Ceiling: at least 12,000 feet AGL
Clouds: sky clear below 12,000 feet AGL
Weather: automated observation with no human augmentation;
there may or may not be significant weather present at this time

METAR text: KMNH 230518Z AUTO 22008KT 10SM CLR 18/09 A3029 RMK AO2 LTG DSNT E
Conditions at: KMNH (MONUMENT/ELBERT , CO, US) observed 0518 UTC 23 July 2016
Temperature: 18.0°C (64°F)
Dewpoint: 9.0°C (48°F) [RH = 56%]
Pressure (altimeter): 30.29 inches Hg (1025.8 mb)
Winds: from the SW (220 degrees) at 9 MPH (8 knots; 4.2 m/s)
Visibility: 10 or more miles (16+ km)
Ceiling: at least 12,000 feet AGL
Clouds: sky clear below 12,000 feet AGL
Weather: automated observation with no human augmentation;
there may or may not be significant weather present at this time

METAR text: KMNH 230458Z AUTO 22009KT 10SM CLR 18/10 A3029 RMK AO2
Conditions at: KMNH (MONUMENT/ELBERT , CO, US) observed 0458 UTC 23 July 2016
Temperature: 18.0°C (64°F)
Dewpoint: 10.0°C (50°F) [RH = 59%]
Pressure (altimeter): 30.29 inches Hg (1025.8 mb)
Winds: from the SW (220 degrees) at 10 MPH (9 knots; 4.7 m/s)
Visibility: 10 or more miles (16+ km)
Ceiling: at least 12,000 feet AGL
Clouds: sky clear below 12,000 feet AGL
Weather: automated observation with no human augmentation;
there may or may not be significant weather present at this time

METAR text: KMNH 230438Z AUTO 23007KT 10SM CLR 17/11 A3029 RMK AO2
Conditions at: KMNH (MONUMENT/ELBERT , CO, US) observed 0438 UTC 23 July 2016
Temperature: 17.0°C (63°F)
Dewpoint: 11.0°C (52°F) [RH = 68%]
Pressure (altimeter): 30.29 inches Hg (1025.8 mb)
Winds: from the SW (230 degrees) at 8 MPH (7 knots; 3.6 m/s)
Visibility: 10 or more miles (16+ km)
Ceiling: at least 12,000 feet AGL
Clouds: sky clear below 12,000 feet AGL
Weather: automated observation with no human augmentation;
there may or may not be significant weather present at this time

METAR text: KMNH 230417Z AUTO 23010KT 10SM CLR 19/10 A3029 RMK AO2
Conditions at: KMNH (MONUMENT/ELBERT , CO, US) observed 0417 UTC 23 July 2016
Temperature: 19.0°C (66°F)
Dewpoint: 10.0°C (50°F) [RH = 56%]
Pressure (altimeter): 30.29 inches Hg (1025.8 mb)
Winds: from the SW (230 degrees) at 12 MPH (10 knots; 5.2 m/s)
Visibility: 10 or more miles (16+ km)
Ceiling: at least 12,000 feet AGL
Clouds: sky clear below 12,000 feet AGL
Weather: automated observation with no human augmentation;
there may or may not be significant weather present at this time

METAR text: KMNH 230358Z AUTO 22007KT 10SM CLR 19/11 A3030 RMK AO2
Conditions at: KMNH (MONUMENT/ELBERT , CO, US) observed 0358 UTC 23 July 2016
Temperature: 19.0°C (66°F)
Dewpoint: 11.0°C (52°F) [RH = 60%]
Pressure (altimeter): 30.30 inches Hg (1026.2 mb)
Winds: from the SW (220 degrees) at 8 MPH (7 knots; 3.6 m/s)
Visibility: 10 or more miles (16+ km)
Ceiling: at least 12,000 feet AGL
Clouds: sky clear below 12,000 feet AGL
Weather: automated observation with no human augmentation;
there may or may not be significant weather present at this time

METAR text: KMNH 230337Z AUTO 26005KT 10SM CLR 17/12 A3030 RMK AO2
Conditions at: KMNH (MONUMENT/ELBERT , CO, US) observed 0337 UTC 23 July 2016
Temperature: 17.0°C (63°F)
Dewpoint: 12.0°C (54°F) [RH = 72%]
Pressure (altimeter): 30.30 inches Hg (1026.2 mb)
Winds: from the W (260 degrees) at 6 MPH (5 knots; 2.6 m/s)
Visibility: 10 or more miles (16+ km)
Ceiling: at least 12,000 feet AGL
Clouds: sky clear below 12,000 feet AGL
Weather: automated observation with no human augmentation;
there may or may not be significant weather present at this time

METAR text: KMNH 230318Z AUTO 22007KT 10SM CLR 19/11 A3029 RMK AO2
Conditions at: KMNH (MONUMENT/ELBERT , CO, US) observed 0318 UTC 23 July 2016
Temperature: 19.0°C (66°F)
Dewpoint: 11.0°C (52°F) [RH = 60%]
Pressure (altimeter): 30.29 inches Hg (1025.8 mb)
Winds: from the SW (220 degrees) at 8 MPH (7 knots; 3.6 m/s)
Visibility: 10 or more miles (16+ km)
Ceiling: at least 12,000 feet AGL
Clouds: sky clear below 12,000 feet AGL
Weather: automated observation with no human augmentation;
there may or may not be significant weather present at this time

METAR text: KMNH 230257Z AUTO 22007KT 10SM SCT110 20/11 A3029 RMK AO2
Conditions at: KMNH (MONUMENT/ELBERT , CO, US) observed 0257 UTC 23 July 2016
Temperature: 20.0°C (68°F)
Dewpoint: 11.0°C (52°F) [RH = 56%]
Pressure (altimeter): 30.29 inches Hg (1025.8 mb)
Winds: from the SW (220 degrees) at 8 MPH (7 knots; 3.6 m/s)
Visibility: 10 or more miles (16+ km)
Ceiling: at least 12,000 feet AGL
Clouds: scattered clouds at 11000 feet AGL
Weather: automated observation with no human augmentation;
there may or may not be significant weather present at this time

METAR text: KMNH 230238Z AUTO 20006KT 10SM SCT120 20/12 A3029 RMK AO2
Conditions at: KMNH (MONUMENT/ELBERT , CO, US) observed 0238 UTC 23 July 2016
Temperature: 20.0°C (68°F)
Dewpoint: 12.0°C (54°F) [RH = 60%]
Pressure (altimeter): 30.29 inches Hg (1025.8 mb)
Winds: from the SSW (200 degrees) at 7 MPH (6 knots; 3.1 m/s)
Visibility: 10 or more miles (16+ km)
Ceiling: at least 12,000 feet AGL
Clouds: scattered clouds at 12000 feet AGL
Weather: automated observation with no human augmentation;
there may or may not be significant weather present at this time

METAR text: KMNH 230217Z AUTO 20005KT 10SM CLR 20/13 A3029 RMK AO2
Conditions at: KMNH (MONUMENT/ELBERT , CO, US) observed 0217 UTC 23 July 2016
Temperature: 20.0°C (68°F)
Dewpoint: 13.0°C (55°F) [RH = 64%]
Pressure (altimeter): 30.29 inches Hg (1025.8 mb)
Winds: from the SSW (200 degrees) at 6 MPH (5 knots; 2.6 m/s)
Visibility: 10 or more miles (16+ km)
Ceiling: at least 12,000 feet AGL
Clouds: sky clear below 12,000 feet AGL
Weather: automated observation with no human augmentation;
there may or may not be significant weather present at this time

METAR text: KMNH 230158Z AUTO 24005KT 10SM CLR 19/13 A3029 RMK AO2
Conditions at: KMNH (MONUMENT/ELBERT , CO, US) observed 0158 UTC 23 July 2016
Temperature: 19.0°C (66°F)
Dewpoint: 13.0°C (55°F) [RH = 68%]
Pressure (altimeter): 30.29 inches Hg (1025.8 mb)
Winds: from the WSW (240 degrees) at 6 MPH (5 knots; 2.6 m/s)
Visibility: 10 or more miles (16+ km)
Ceiling: at least 12,000 feet AGL
Clouds: sky clear below 12,000 feet AGL
Weather: automated observation with no human augmentation;
there may or may not be significant weather present at this time

METAR text: KMNH 230138Z AUTO 22005KT 10SM CLR 20/13 A3029 RMK AO2
Conditions at: KMNH (MONUMENT/ELBERT , CO, US) observed 0138 UTC 23 July 2016
Temperature: 20.0°C (68°F)
Dewpoint: 13.0°C (55°F) [RH = 64%]
Pressure (altimeter): 30.29 inches Hg (1025.8 mb)
Winds: from the SW (220 degrees) at 6 MPH (5 knots; 2.6 m/s)
Visibility: 10 or more miles (16+ km)
Ceiling: at least 12,000 feet AGL
Clouds: sky clear below 12,000 feet AGL
Weather: automated observation with no human augmentation;
there may or may not be significant weather present at this time

METAR text: KMNH 230118Z AUTO 18007KT 10SM CLR 21/14 A3028 RMK AO2 LTG DSNT SE AND NW
Conditions at: KMNH (MONUMENT/ELBERT , CO, US) observed 0118 UTC 23 July 2016
Temperature: 21.0°C (70°F)
Dewpoint: 14.0°C (57°F) [RH = 64%]
Pressure (altimeter): 30.28 inches Hg (1025.5 mb)
Winds: from the S (180 degrees) at 8 MPH (7 knots; 3.6 m/s)
Visibility: 10 or more miles (16+ km)
Ceiling: at least 12,000 feet AGL
Clouds: sky clear below 12,000 feet AGL
Weather: automated observation with no human augmentation;
there may or may not be significant weather present at this time

METAR text: KMNH 230058Z AUTO 19006KT 10SM CLR 22/13 A3028 RMK AO2
Conditions at: KMNH (MONUMENT/ELBERT , CO, US) observed 0058 UTC 23 July 2016
Temperature: 22.0°C (72°F)
Dewpoint: 13.0°C (55°F) [RH = 57%]
Pressure (altimeter): 30.28 inches Hg (1025.5 mb)
Winds: from the S (190 degrees) at 7 MPH (6 knots; 3.1 m/s)
Visibility: 10 or more miles (16+ km)
Ceiling: at least 12,000 feet AGL
Clouds: sky clear below 12,000 feet AGL
Weather: automated observation with no human augmentation;
there may or may not be significant weather present at this time

METAR text: KMNH 230038Z AUTO 18006KT 10SM CLR 22/12 A3029 RMK AO2 LTG DSNT SE
Conditions at: KMNH (MONUMENT/ELBERT , CO, US) observed 0038 UTC 23 July 2016
Temperature: 22.0°C (72°F)
Dewpoint: 12.0°C (54°F) [RH = 53%]
Pressure (altimeter): 30.29 inches Hg (1025.8 mb)
Winds: from the S (180 degrees) at 7 MPH (6 knots; 3.1 m/s)
Visibility: 10 or more miles (16+ km)
Ceiling: at least 12,000 feet AGL
Clouds: sky clear below 12,000 feet AGL
Weather: automated observation with no human augmentation;
there may or may not be significant weather present at this time

METAR text: KMNH 230018Z AUTO 15010G15KT 10SM SCT120 21/12 A3030 RMK AO2 LTG DSNT NW
Conditions at: KMNH (MONUMENT/ELBERT , CO, US) observed 0018 UTC 23 July 2016
Temperature: 21.0°C (70°F)
Dewpoint: 12.0°C (54°F) [RH = 56%]
Pressure (altimeter): 30.30 inches Hg (1026.2 mb)
Winds: from the SSE (150 degrees) at 12 MPH (10 knots; 5.2 m/sgusting to 17 MPH (15 knots; 7.8 m/s)
Visibility: 10 or more miles (16+ km)
Ceiling: at least 12,000 feet AGL
Clouds: scattered clouds at 12000 feet AGL
Weather: automated observation with no human augmentation;
there may or may not be significant weather present at this time

METAR text: KMNH 222358Z AUTO 17007KT 10SM SCT100 BKN120 21/13 A3030 RMK AO2 LTG DSNT ALQS
Conditions at: KMNH (MONUMENT/ELBERT , CO, US) observed 2358 UTC 22 July 2016
Temperature: 21.0°C (70°F)
Dewpoint: 13.0°C (55°F) [RH = 60%]
Pressure (altimeter): 30.30 inches Hg (1026.2 mb)
Winds: from the S (170 degrees) at 8 MPH (7 knots; 3.6 m/s)
Visibility: 10 or more miles (16+ km)
Ceiling: 12000 feet AGL
Clouds: scattered clouds at 10000 feet AGL
broken clouds at 12000 feet AGL
Weather: automated observation with no human augmentation;
there may or may not be significant weather present at this time

METAR text: KMNH 222338Z AUTO 18008KT 10SM VCTS SCT080 BKN095 BKN110 20/12 A3030 RMK AO2 LTG DSNT E SE AND W
Conditions at: KMNH (MONUMENT/ELBERT , CO, US) observed 2338 UTC 22 July 2016
Temperature: 20.0°C (68°F)
Dewpoint: 12.0°C (54°F) [RH = 60%]
Pressure (altimeter): 30.30 inches Hg (1026.2 mb)
Winds: from the S (180 degrees) at 9 MPH (8 knots; 4.2 m/s)
Visibility: 10 or more miles (16+ km)
Ceiling: 9500 feet AGL
Clouds: scattered clouds at 8000 feet AGL
broken clouds at 9500 feet AGL
broken clouds at 11000 feet AGL
Weather: VCTS  (thunderstorm in vicinity)

METAR text: KMNH 222318Z AUTO 21009G16KT 10SM -RA SCT027 SCT080 BKN090 20/11 A3032 RMK AO2 LTG DSNT SE AND S
Conditions at: KMNH (MONUMENT/ELBERT , CO, US) observed 2318 UTC 22 July 2016
Temperature: 20.0°C (68°F)
Dewpoint: 11.0°C (52°F) [RH = 56%]
Pressure (altimeter): 30.32 inches Hg (1026.8 mb)
Winds: from the SSW (210 degrees) at 10 MPH (9 knots; 4.7 m/sgusting to 18 MPH (16 knots; 8.3 m/s)
Visibility: 10 or more miles (16+ km)
Ceiling: 9000 feet AGL
Clouds: scattered clouds at 2700 feet AGL
scattered clouds at 8000 feet AGL
broken clouds at 9000 feet AGL
Weather: -RA  (light rain)

METAR text: KMNH 222258Z AUTO 17008KT 10SM -TSRA SCT022 BKN090 OVC120 20/10 A3033 RMK AO2 LTG DSNT ALQS P0017
Conditions at: KMNH (MONUMENT/ELBERT , CO, US) observed 2258 UTC 22 July 2016
Temperature: 20.0°C (68°F)
Dewpoint: 10.0°C (50°F) [RH = 53%]
Pressure (altimeter): 30.33 inches Hg (1027.2 mb)
Winds: from the S (170 degrees) at 9 MPH (8 knots; 4.2 m/s)
Visibility: 10 or more miles (16+ km)
Ceiling: 9000 feet AGL
Clouds: scattered clouds at 2200 feet AGL
broken clouds at 9000 feet AGL
overcast cloud deck at 12000 feet AGL
Weather: -TSRA  (light rain associated with thunderstorm(s))